Terminal Aerodrome Forecast
Issued by NWS

Home | Current Version | Previous Version | Text Only | Print | Product List | Glossary On
Versions: 1 2 3 4 5 6 7 8 9 10 11 12 13 14 15 16
000
FTUS45 KRIW 242300
TAFCPR
TAF
KCPR 242330Z 2500/2524 24010G15KT P6SM VCTS SCT060CB BKN120
      TEMPO 2500/2503 VRB15G30KT
     FM250300 21007KT P6SM SCT100
     FM250700 24014KT P6SM SCT100
     FM251600 05011KT P6SM FEW200
     FM252200 05011KT P6SM VCSH BKN050=

USA.gov is the U.S. government's official web portal to all federal, state and local government web resources and services.